Time;durP1;ratioP1;P1;durP2;ratioP2;P2;SDS_P1;SDS_P2;PMS_P1;PMS_P2;Temp;Humidity;BMP_temperature;BMP_pressure;BME280_temperature;BME280_humidity;BME280_pressure;Samples;Min_cycle;Max_cycle;Signal;HPM_P1;HPM_P2
2023/09/26 00:00:08;;;;;;;12.75;8.02;;;12.30;99.90;;;11.17;100.00;102132.88;5043178;28;20033;-77
2023/09/26 00:02:35;;;;;;;14.98;8.57;;;12.30;99.90;;;11.18;100.00;102128.47;5052542;28;20040;-76
2023/09/26 00:05:03;;;;;;;7.68;6.00;;;12.30;99.90;;;11.16;100.00;102127.63;5055115;28;20627;-76
2023/09/26 00:07:29;;;;;;;9.07;6.40;;;12.20;99.90;;;11.12;100.00;102131.25;5054111;28;20041;-76
2023/09/26 00:09:56;;;;;;;5.88;3.92;;;12.20;99.90;;;11.05;100.00;102134.03;5051840;28;20053;-76
2023/09/26 00:12:21;;;;;;;9.77;5.03;;;12.10;99.90;;;11.00;99.77;102129.81;5063460;28;20093;-75
2023/09/26 00:14:47;;;;;;;6.55;3.90;;;11.10;99.90;;;10.93;98.50;102130.84;5051509;28;20041;-76
2023/09/26 00:17:17;;;;;;;10.13;5.35;;;12.00;99.90;;;10.86;98.48;102131.03;5054097;28;20076;-76
2023/09/26 00:19:43;;;;;;;6.93;5.10;;;12.00;99.90;;;10.81;97.76;102126.78;5042411;28;20414;-76
2023/09/26 00:22:09;;;;;;;3.25;2.72;;;11.90;99.90;;;10.74;97.27;102133.13;5048175;28;20045;-76
2023/09/26 00:24:34;;;;;;;17.20;8.40;;;11.90;99.90;;;10.67;97.35;102130.63;5049819;28;20021;-75
2023/09/26 00:27:00;;;;;;;9.40;5.32;;;11.80;99.90;;;10.65;99.54;102131.56;5028212;28;20099;-76
2023/09/26 00:29:26;;;;;;;13.68;10.30;;;11.80;99.90;;;10.67;100.00;102132.41;5053719;28;20546;-76
2023/09/26 00:31:51;;;;;;;10.23;7.22;;;11.80;99.90;;;10.74;100.00;102133.13;5053530;28;20044;-76
2023/09/26 00:34:17;;;;;;;10.68;7.70;;;11.90;99.90;;;10.78;100.00;102133.00;5053421;28;20052;-76
2023/09/26 00:36:44;;;;;;;12.07;7.90;;;11.90;99.90;;;10.81;100.00;102124.16;5054335;28;20062;-76
2023/09/26 00:39:09;;;;;;;10.00;4.40;;;11.90;99.90;;;10.80;100.00;102131.19;5055571;28;20044;-76
2023/09/26 00:41:35;;;;;;;4.00;3.38;;;11.90;99.90;;;10.75;100.00;102135.69;5052922;28;20033;-75
2023/09/26 00:44:02;;;;;;;12.35;7.22;;;11.80;99.90;;;10.68;100.00;102127.06;5052939;28;20065;-76
2023/09/26 00:46:28;;;;;;;5.90;3.85;;;11.80;99.90;;;10.60;100.00;102131.66;5050389;28;20114;-76
2023/09/26 00:48:56;;;;;;;7.18;3.78;;;11.70;99.90;;;10.50;99.35;102134.59;5049933;28;20033;-76
2023/09/26 00:51:21;;;;;;;8.55;7.07;;;11.60;99.90;;;10.42;98.17;102132.13;5054529;28;20035;-76
2023/09/26 00:53:47;;;;;;;12.00;8.13;;;11.60;99.90;;;10.33;97.51;102132.34;5050338;28;20029;-75
2023/09/26 00:56:13;;;;;;;11.05;7.60;;;11.50;99.90;;;10.21;97.40;102131.66;5051444;28;20040;-76
2023/09/26 00:58:40;;;;;;;12.68;5.70;;;11.40;99.90;;;10.16;97.12;102138.81;5049685;28;20037;-76
2023/09/26 01:01:07;;;;;;;10.27;7.15;;;11.30;99.90;;;10.09;98.28;102129.31;5052530;28;20167;-76
2023/09/26 01:03:34;;;;;;;13.85;7.05;;;11.30;99.90;;;10.09;98.92;102123.22;5052470;28;20025;-76
2023/09/26 01:06:01;;;;;;;16.02;10.48;;;11.30;99.90;;;10.10;99.53;102122.28;5034864;28;20058;-76
2023/09/26 01:08:28;;;;;;;17.70;8.90;;;11.30;99.90;;;10.10;100.00;102122.28;5053462;28;20045;-75
2023/09/26 01:10:55;;;;;;;24.00;13.60;;;11.30;99.90;;;10.14;100.00;102129.22;5047242;28;20063;-76
2023/09/26 01:13:21;;;;;;;22.38;13.23;;;11.30;99.90;;;10.18;100.00;102123.00;5051942;28;20045;-75
2023/09/26 01:15:47;;;;;;;18.83;11.10;;;11.30;99.90;;;10.21;100.00;102120.28;5052648;28;20033;-76
2023/09/26 01:18:16;;;;;;;20.85;12.45;;;11.40;99.90;;;10.25;100.00;102114.91;5041222;28;20130;-76
2023/09/26 01:20:44;;;;;;;25.95;13.52;;;11.40;99.90;;;10.30;100.00;102113.97;5033882;28;20630;-76
2023/09/26 01:23:15;;;;;;;19.50;12.15;;;11.40;99.90;;;10.33;100.00;102113.91;5050746;28;20049;-75
2023/09/26 01:25:42;;;;;;;12.32;9.48;;;11.40;99.90;;;10.34;100.00;102113.84;5051291;28;20037;-76
2023/09/26 01:28:10;;;;;;;22.25;12.48;;;11.50;99.90;;;10.34;100.00;102118.25;5038166;28;20746;-76
2023/09/26 01:30:40;;;;;;;16.20;10.75;;;11.50;99.90;;;10.34;100.00;102119.13;5052729;28;20033;-76
2023/09/26 01:33:08;;;;;;;20.67;12.10;;;11.50;99.90;;;10.35;100.00;102112.97;5049467;28;20037;-75
2023/09/26 01:35:35;;;;;;;10.38;8.23;;;11.50;99.90;;;10.34;100.00;102113.84;5033469;28;20033;-76
2023/09/26 01:38:00;;;;;;;10.40;7.65;;;11.50;99.90;;;10.30;100.00;102112.19;5053082;28;20040;-76
2023/09/26 01:40:26;;;;;;;11.65;8.32;;;11.40;99.90;;;10.25;100.00;102106.16;5051940;28;21390;-76
2023/09/26 01:42:52;;;;;;;9.68;6.75;;;11.30;99.90;;;10.14;100.00;102116.06;5050328;28;20041;-76
2023/09/26 01:45:18;;;;;;;11.75;8.02;;;11.30;99.90;;;10.09;100.00;102118.81;5047323;28;20070;-76
2023/09/26 01:47:49;;;;;;;19.92;12.55;;;11.30;99.90;;;10.07;100.00;102110.94;5049986;28;20032;-75
2023/09/26 01:50:17;;;;;;;25.80;16.13;;;11.20;99.90;;;10.07;100.00;102110.94;5055454;28;20095;-76
2023/09/26 01:52:43;;;;;;;21.05;13.05;;;11.20;99.90;;;10.08;100.00;102111.78;5053911;28;20033;-75
2023/09/26 01:55:19;;;;;;;20.17;13.02;;;11.20;99.90;;;10.07;100.00;102110.94;5054596;28;20036;-75
2023/09/26 01:57:45;;;;;;;21.23;12.60;;;11.10;99.90;;;10.01;100.00;102105.81;5052039;28;20028;-76
2023/09/26 02:00:13;;;;;;;23.77;14.90;;;11.20;99.90;;;10.02;100.00;102104.03;5053050;28;20033;-76
2023/09/26 02:02:45;;;;;;;18.80;12.88;;;11.20;99.90;;;10.03;100.00;102108.41;5059473;28;20038;-76
2023/09/26 02:05:14;;;;;;;23.90;14.20;;;11.20;99.90;;;10.08;100.00;102111.78;5036718;28;20033;-76
2023/09/26 02:07:40;;;;;;;24.80;14.48;;;11.20;99.90;;;10.04;100.00;102116.28;5039668;28;20403;-76
2023/09/26 02:10:07;;;;;;;24.52;14.18;;;11.20;99.90;;;10.06;100.00;102108.31;5053957;28;20031;-75
2023/09/26 02:12:37;;;;;;;23.27;13.13;;;11.20;99.90;;;10.04;100.00;102105.75;5054787;28;20036;-76
2023/09/26 02:15:06;;;;;;;27.55;15.00;;;11.20;99.90;;;10.03;100.00;102098.72;5055152;28;20041;-75
2023/09/26 02:17:35;;;;;;;26.65;15.27;;;11.20;99.90;;;10.03;100.00;102095.25;5054397;28;20517;-75
2023/09/26 02:20:12;;;;;;;22.05;13.45;;;11.20;99.90;;;10.00;100.00;102104.09;5052249;28;20048;-76
2023/09/26 02:22:41;;;;;;;24.58;14.45;;;11.10;99.90;;;9.97;100.00;102098.88;5053070;28;20028;-76
2023/09/26 02:25:08;;;;;;;25.60;13.85;;;11.20;99.90;;;9.99;100.00;102099.69;5053520;28;20053;-76
2023/09/26 02:27:34;;;;;;;21.48;14.40;;;11.20;99.90;;;10.00;100.00;102098.81;5056610;28;20036;-75
2023/09/26 02:30:00;;;;;;;25.15;15.50;;;11.20;99.90;;;10.01;100.00;102099.69;5056476;28;20117;-75
2023/09/26 02:32:26;;;;;;;21.30;13.60;;;11.20;99.90;;;10.01;100.00;102092.63;5037130;28;20029;-76
2023/09/26 02:34:52;;;;;;;19.63;12.98;;;11.10;99.90;;;9.99;100.00;102085.69;5053519;28;20107;-76
2023/09/26 02:37:17;;;;;;;16.75;10.43;;;11.10;99.90;;;9.96;100.00;102091.88;5059903;28;20633;-75
2023/09/26 02:39:43;;;;;;;19.92;12.30;;;11.10;99.90;;;9.92;100.00;102090.22;5045089;28;20017;-76
2023/09/26 02:42:09;;;;;;;18.63;10.52;;;11.10;99.90;;;9.91;100.00;102083.22;5052213;28;20029;-76
2023/09/26 02:44:34;;;;;;;17.55;11.10;;;11.10;99.90;;;9.86;100.00;102079.81;5050455;28;20036;-75
2023/09/26 02:47:00;;;;;;;6.68;4.10;;;11.00;99.90;;;9.81;100.00;102076.44;5053729;28;20037;-76
2023/09/26 02:49:26;;;;;;;12.90;7.70;;;10.90;99.90;;;9.77;100.00;102069.50;5058490;28;20047;-75
2023/09/26 02:51:51;;;;;;;11.07;6.05;;;10.90;99.90;;;9.71;100.00;102072.28;5054196;28;20062;-76
2023/09/26 02:54:17;;;;;;;6.30;4.72;;;10.80;99.90;;;9.65;100.00;102074.16;5052305;28;20036;-76
2023/09/26 02:56:43;;;;;;;15.98;9.73;;;10.80;99.90;;;9.60;100.00;102065.47;5050421;28;20039;-75
2023/09/26 02:59:09;;;;;;;6.07;4.82;;;10.70;99.90;;;9.53;100.00;102057.75;5042738;28;20600;-76
2023/09/26 03:01:34;;;;;;;7.47;5.18;;;10.70;99.90;;;9.45;100.00;102060.53;5057189;28;20040;-76
2023/09/26 03:04:00;;;;;;;10.32;5.88;;;10.60;99.90;;;9.38;100.00;102067.69;5056361;28;20791;-76
2023/09/26 03:06:26;;;;;;;8.40;6.47;;;10.60;99.90;;;9.35;100.00;102061.59;5051054;28;20464;-76
2023/09/26 03:08:52;;;;;;;29.23;15.90;;;10.50;99.90;;;9.34;100.00;102065.16;5049654;28;20510;-75
2023/09/26 03:11:17;;;;;;;30.38;18.27;;;10.60;99.90;;;9.37;100.00;102070.34;5056346;28;20446;-75
2023/09/26 03:13:43;;;;;;;26.25;18.27;;;10.60;99.90;;;9.53;100.00;102063.88;5053258;28;20678;-76
2023/09/26 03:16:13;;;;;;;30.33;18.02;;;10.70;99.90;;;9.64;100.00;102059.25;5041455;28;20476;-76
2023/09/26 03:18:40;;;;;;;29.95;18.70;;;10.80;99.90;;;9.74;100.00;102064.31;5052083;28;20727;-76
2023/09/26 03:21:05;;;;;;;35.65;18.63;;;10.90;99.90;;;9.82;100.00;102059.75;5052073;28;20041;-76
2023/09/26 03:23:32;;;;;;;35.38;20.50;;;11.00;99.90;;;9.88;100.00;102058.75;5039897;28;20032;-76
2023/09/26 03:25:58;;;;;;;30.45;18.45;;;11.00;99.90;;;9.90;100.00;102060.44;5053317;28;20570;-76
2023/09/26 03:28:24;;;;;;;45.17;21.23;;;11.00;99.90;;;9.92;100.00;102058.66;5053955;28;20029;-76
2023/09/26 03:30:50;;;;;;;36.58;20.35;;;11.10;99.90;;;9.89;100.00;102058.69;5051967;28;20044;-78
2023/09/26 03:33:15;;;;;;;35.80;20.48;;;11.10;99.90;;;9.92;100.00;102061.28;5049340;28;20056;-76
2023/09/26 03:35:41;;;;;;;26.88;16.88;;;11.10;99.90;;;9.89;100.00;102056.06;5057244;28;20061;-77
2023/09/26 03:38:07;;;;;;;22.55;14.98;;;11.00;99.90;;;9.84;100.00;102043.03;5052007;28;20047;-76
2023/09/26 03:40:33;;;;;;;19.33;11.70;;;11.00;99.90;;;9.79;100.00;102047.53;5042804;28;20036;-76
2023/09/26 03:42:59;;;;;;;29.02;16.30;;;10.90;99.90;;;9.69;100.00;102045.13;5050434;28;20076;-76
2023/09/26 03:45:24;;;;;;;25.70;15.07;;;10.90;99.90;;;9.67;100.00;102039.03;5049443;28;20044;-76
2023/09/26 03:47:51;;;;;;;27.05;17.92;;;10.90;99.90;;;9.74;100.00;102046.78;5053435;28;20488;-77
2023/09/26 03:50:16;;;;;;;31.08;20.50;;;11.00;99.90;;;9.83;100.00;102043.94;5052556;28;20406;-76
2023/09/26 03:52:42;;;;;;;37.88;21.73;;;11.00;99.90;;;9.92;100.00;102047.25;5052565;28;20025;-76
2023/09/26 03:55:08;;;;;;;34.30;22.42;;;11.10;99.90;;;10.01;100.00;102041.78;5051829;28;20046;-77
2023/09/26 03:57:34;;;;;;;49.00;29.00;;;11.20;99.90;;;10.15;100.00;102052.88;5048334;28;20025;-76
2023/09/26 04:00:16;;;;;;;51.80;31.52;;;11.30;99.90;;;10.28;100.00;102053.44;5056899;28;20068;-76
2023/09/26 04:02:44;;;;;;;50.97;30.00;;;11.40;99.90;;;10.37;100.00;102055.88;5052957;28;20063;-76
2023/09/26 04:05:09;;;;;;;57.13;33.88;;;11.50;99.90;;;10.47;100.00;102051.22;5053378;28;20059;-76
2023/09/26 04:07:36;;;;;;;52.45;33.05;;;11.60;99.90;;;10.57;100.00;102054.50;5031814;28;20499;-77
2023/09/26 04:10:02;;;;;;;55.90;33.85;;;11.70;99.90;;;10.64;100.00;102058.72;5050309;28;20065;-77
2023/09/26 04:12:28;;;;;;;54.80;34.95;;;11.80;99.90;;;10.71;100.00;102060.25;5039221;28;20045;-77
2023/09/26 04:14:54;;;;;;;47.25;28.20;;;11.80;99.90;;;10.73;100.00;102050.56;5040203;28;20028;-76
2023/09/26 04:17:20;;;;;;;57.78;32.28;;;11.80;99.90;;;10.74;100.00;102060.22;5035622;28;20029;-76
2023/09/26 04:19:49;;;;;;;53.13;30.58;;;11.90;99.90;;;10.75;100.00;102056.66;5048432;28;20025;-76
2023/09/26 04:22:15;;;;;;;41.33;26.65;;;11.80;99.90;;;10.73;100.00;102053.19;5044693;28;20082;-76
2023/09/26 04:24:40;;;;;;;62.70;33.05;;;11.80;99.90;;;10.73;100.00;102052.34;5035744;28;20036;-76
2023/09/26 04:27:06;;;;;;;93.13;41.17;;;11.80;99.90;;;10.67;100.00;102059.50;5052508;28;20453;-76
2023/09/26 04:29:34;;;;;;;97.30;41.72;;;11.80;99.90;;;10.65;100.00;102055.19;5052319;28;20052;-76
2023/09/26 04:31:59;;;;;;;103.40;41.33;;;11.70;99.90;;;10.58;100.00;102053.59;5048392;28;20120;-76
2023/09/26 04:34:27;;;;;;;96.60;41.58;;;11.70;99.90;;;10.55;100.00;102061.59;5053001;28;20607;-77
2023/09/26 04:36:53;;;;;;;91.50;44.17;;;11.70;99.90;;;10.54;100.00;102058.09;5052547;28;20036;-77
2023/09/26 04:39:19;;;;;;;102.65;46.45;;;11.70;99.90;;;10.55;100.00;102059.81;5043164;28;20448;-77
2023/09/26 04:41:45;;;;;;;88.38;47.10;;;11.70;99.90;;;10.58;100.00;102053.59;5053028;28;20113;-77
2023/09/26 04:44:11;;;;;;;133.73;52.40;;;11.70;99.90;;;10.60;100.00;102055.28;5047363;28;20036;-76
2023/09/26 04:46:38;;;;;;;349.05;63.50;;;11.70;99.90;;;10.57;100.00;102055.38;5050950;28;20048;-76
2023/09/26 04:49:04;;;;;;;642.80;23.35;;;11.60;99.90;;;10.44;100.00;102052.19;5054055;28;20044;-77
2023/09/26 04:51:30;;;;;;;9.35;7.45;;;11.50;99.90;;;10.26;100.00;102049.97;5053546;28;20043;-76
2023/09/26 04:53:58;;;;;;;7.55;6.53;;;11.40;99.90;;;10.11;100.00;102052.94;5046462;28;20488;-77
2023/09/26 04:56:23;;;;;;;10.95;8.75;;;11.20;99.90;;;9.98;100.00;102048.00;5050024;28;20040;-76
2023/09/26 04:58:49;;;;;;;7.93;6.95;;;11.10;99.90;;;9.89;100.00;102042.91;5054614;28;20074;-76
2023/09/26 05:01:15;;;;;;;16.98;8.50;;;11.10;99.90;;;9.83;100.00;102043.09;5052743;28;20028;-77
2023/09/26 05:03:43;;;;;;;734.70;28.88;;;10.90;99.90;;;9.73;100.00;102036.28;5052734;28;20036;-76
2023/09/26 05:06:09;;;;;;;395.73;14.40;;;10.80;99.90;;;9.59;100.00;102034.81;5052280;28;20102;-76
2023/09/26 05:08:36;;;;;;;8.82;7.93;;;10.80;99.90;;;9.54;100.00;102039.31;5034408;28;20025;-76
2023/09/26 05:11:01;;;;;;;7.80;6.97;;;10.70;99.90;;;9.51;100.00;102042.00;5051103;28;20069;-76
2023/09/26 05:13:27;;;;;;;8.32;6.53;;;10.70;99.90;;;9.50;100.00;102048.16;5040439;28;20041;-76
2023/09/26 05:15:53;;;;;;;95.32;7.88;;;10.60;99.90;;;9.51;100.00;102046.41;5068166;28;20033;-76
2023/09/26 05:18:18;;;;;;;1085.95;33.67;;;10.60;99.90;;;9.51;100.00;102039.38;5051104;28;20867;-76
2023/09/26 05:20:44;;;;;;;215.48;11.63;;;10.60;99.90;;;9.52;100.00;102048.13;5049663;28;20045;-76
2023/09/26 05:23:10;;;;;;;729.67;25.45;;;10.60;99.90;;;9.57;100.00;102043.66;5058389;28;20032;-77
2023/09/26 05:25:35;;;;;;;285.50;14.57;;;10.70;99.90;;;9.64;100.00;102048.72;5050862;28;20079;-76
2023/09/26 05:28:01;;;;;;;399.75;19.08;;;10.70;99.90;;;9.75;100.00;102050.28;5054016;28;20036;-76
2023/09/26 05:30:27;;;;;;;790.72;47.78;;;10.80;99.90;;;9.85;100.00;102057.94;5052601;28;20036;-76
2023/09/26 05:32:53;;;;;;;424.08;46.22;;;10.90;99.90;;;9.98;100.00;102057.66;5051829;28;20533;-76
2023/09/26 05:35:18;;;;;;;83.05;38.15;;;11.00;99.90;;;10.12;100.00;102065.22;5058027;28;20048;-76
2023/09/26 05:37:44;;;;;;;50.22;29.75;;;11.10;99.90;;;10.25;100.00;102056.13;5071286;28;20052;-76
2023/09/26 05:40:10;;;;;;;90.72;41.03;;;11.20;99.90;;;10.39;100.00;102059.34;5053527;28;20036;-77
2023/09/26 05:42:38;;;;;;;62.53;27.08;;;11.30;99.90;;;10.55;100.00;102064.22;5052812;28;20113;-77
2023/09/26 05:45:08;;;;;;;46.35;25.13;;;11.40;99.90;;;10.63;100.00;102059.63;5052422;28;20048;-76
2023/09/26 05:47:34;;;;;;;45.25;26.30;;;11.50;99.90;;;10.81;100.00;102067.03;5047494;28;20463;-76
2023/09/26 05:50:01;;;;;;;60.45;34.92;;;11.70;99.90;;;11.00;100.00;102066.56;5055832;28;20043;-76
2023/09/26 05:52:27;;;;;;;65.57;34.45;;;11.90;99.90;;;11.29;100.00;102069.25;5054243;28;20056;-77
2023/09/26 05:54:53;;;;;;;49.85;28.08;;;12.00;99.90;;;11.62;100.00;102060.38;5050358;28;20550;-77
2023/09/26 05:57:19;;;;;;;55.53;31.42;;;12.10;99.90;;;11.56;100.00;102068.50;5041913;28;20036;-76
2023/09/26 05:59:44;;;;;;;61.58;33.85;;;12.30;99.90;;;11.72;100.00;102063.63;5049390;28;20545;-76
2023/09/26 06:02:16;;;;;;;42.55;26.63;;;12.40;99.90;;;12.06;100.00;102066.13;5058993;28;20033;-77
2023/09/26 06:04:43;;;;;;;45.72;27.80;;;12.70;99.90;;;13.40;100.00;102082.75;5072992;28;20053;-77
2023/09/26 06:07:09;;;;;;;38.78;25.90;;;13.00;99.90;;;14.19;98.37;102077.94;5037863;28;20055;-76
2023/09/26 06:09:36;;;;;;;38.67;24.70;;;13.50;99.90;;;15.34;91.98;102087.22;5055048;28;20108;-76
2023/09/26 06:12:06;;;;;;;23.88;17.38;;;14.00;99.90;;;14.73;88.12;102076.66;5056549;28;20060;-76
2023/09/26 06:14:33;;;;;;;32.92;24.80;;;14.30;99.90;;;14.45;88.46;102072.47;5053299;28;20410;-76
2023/09/26 06:16:59;;;;;;;38.90;25.15;;;14.40;99.90;;;14.48;89.38;102074.97;5050562;28;20083;-76
2023/09/26 06:19:24;;;;;;;34.53;23.90;;;14.60;99.90;;;15.25;87.54;102082.34;5051325;28;20036;-76
2023/09/26 06:21:50;;;;;;;36.05;23.42;;;14.90;99.90;;;17.08;82.30;102104.56;5055917;28;20056;-76
2023/09/26 06:24:16;;;;;;;26.50;20.98;;;15.60;99.90;;;18.42;77.23;102103.47;5056793;28;20524;-77
2023/09/26 06:26:41;;;;;;;25.10;18.48;;;16.50;99.90;;;21.16;68.95;102120.94;5052474;28;20112;-76
2023/09/26 06:29:07;;;;;;;21.38;16.98;;;16.70;99.90;;;23.32;61.95;102147.13;5054111;28;20380;-77
2023/09/26 06:31:33;;;;;;;20.15;14.82;;;19.10;99.90;;;25.11;57.57;102161.19;5059408;28;20066;-76
2023/09/26 06:34:01;;;;;;;16.35;13.80;;;20.50;99.90;;;26.53;53.88;102186.50;5048941;28;20045;-76
2023/09/26 06:36:30;;;;;;;15.80;13.38;;;21.90;99.90;;;27.77;51.50;102198.28;5049392;28;20059;-77
2023/09/26 06:38:57;;;;;;;22.63;15.75;;;23.10;99.90;;;28.29;50.06;102214.84;5055059;28;20036;-77
2023/09/26 06:41:23;;;;;;;19.25;14.65;;;24.00;99.90;;;28.72;48.93;102226.00;5055550;28;20051;-77
2023/09/26 06:43:49;;;;;;;18.60;15.35;;;24.60;99.90;;;28.68;48.24;102233.59;5055738;28;20033;-77
2023/09/26 06:46:15;;;;;;;17.40;15.05;;;24.80;99.90;;;28.35;48.35;102237.78;5051516;28;20047;-77
2023/09/26 06:48:43;;;;;;;20.08;14.30;;;24.90;99.90;;;27.60;49.54;102225.16;5051297;28;20068;-77
2023/09/26 06:51:09;;;;;;;19.45;14.35;;;24.80;99.90;;;27.78;49.22;102235.19;5055352;28;20051;-77
2023/09/26 06:53:36;;;;;;;20.38;14.55;;;25.10;99.90;;;28.30;48.14;102240.97;5052713;28;20033;-77
2023/09/26 06:56:05;;;;;;;17.10;14.07;;;25.40;99.90;;;28.38;48.31;102253.72;5052477;28;20037;-77
2023/09/26 06:58:31;;;;;;;16.88;14.25;;;25.50;99.90;;;28.18;48.49;102256.53;5034715;28;20071;-77
2023/09/26 07:00:58;;;;;;;20.70;14.65;;;25.90;99.90;;;29.08;47.12;102266.69;5051996;28;20037;-77
2023/09/26 07:03:27;;;;;;;18.77;13.38;;;26.30;99.90;;;28.62;47.61;102266.75;5057050;28;20430;-77
2023/09/26 07:05:54;;;;;;;18.05;13.27;;;26.70;99.90;;;29.40;46.38;102288.66;5054072;28;20417;-77
2023/09/26 07:08:20;;;;;;;18.33;13.43;;;27.00;99.90;;;29.10;46.57;102281.81;5055947;28;20111;-77
2023/09/26 07:10:46;;;;;;;17.08;13.18;;;27.10;99.90;;;28.68;47.11;102278.81;5052021;28;20033;-77
2023/09/26 07:13:13;;;;;;;15.30;12.50;;;27.10;99.90;;;28.17;47.34;102273.81;5043959;28;20028;-77
2023/09/26 07:15:40;;;;;;;20.02;13.40;;;27.20;99.90;;;28.96;46.93;102295.88;5054028;28;20115;-77
2023/09/26 07:18:09;;;;;;;17.60;12.05;;;27.30;99.90;;;28.92;46.96;102294.47;5056062;28;20049;-77
2023/09/26 07:20:38;;;;;;;20.77;13.63;;;27.80;99.90;;;29.45;46.40;102307.19;5056529;28;20025;-77
2023/09/26 07:23:04;;;;;;;15.68;12.88;;;28.20;99.90;;;29.68;45.77;102303.94;5052020;28;20036;-77
2023/09/26 07:25:30;;;;;;;17.08;12.00;;;28.70;99.90;;;29.90;45.21;102308.88;5043100;28;20068;-78
2023/09/26 07:27:55;;;;;;;16.27;11.85;;;28.80;99.10;;;29.31;46.05;102302.31;5059005;28;20033;-77
2023/09/26 07:30:21;;;;;;;13.65;12.52;;;29.10;99.90;;;29.93;45.43;102305.00;5051448;28;20478;-77
2023/09/26 07:32:47;;;;;;;16.10;11.20;;;28.90;98.30;;;28.80;46.97;102292.00;5051167;28;20049;-77
2023/09/26 07:35:13;;;;;;;16.33;11.55;;;29.10;99.40;;;29.33;46.05;102297.59;5056373;28;20051;-77
2023/09/26 07:37:39;;;;;;;13.48;11.52;;;28.80;97.90;;;28.31;47.75;102280.56;5058270;28;20033;-77
2023/09/26 07:40:08;;;;;;;16.92;11.10;;;29.10;98.80;;;29.15;46.76;102293.03;5058252;28;20085;-77
2023/09/26 07:42:36;;;;;;;15.30;12.48;;;29.30;98.30;;;29.26;46.24;102296.50;5053358;28;20414;-77
2023/09/26 07:45:02;;;;;;;14.82;9.77;;;29.60;98.30;;;29.43;45.89;102309.19;5048519;28;20049;-77
2023/09/26 07:47:28;;;;;;;13.27;10.25;;;29.60;97.40;;;29.04;46.72;102299.50;5052407;28;20573;-77
2023/09/26 07:49:54;;;;;;;12.60;10.98;;;29.70;97.50;;;28.94;46.75;102296.03;5034951;28;20024;-77
2023/09/26 07:52:22;;;;;;;18.73;15.45;;;29.80;97.50;;;29.23;46.07;102303.94;5057348;28;20052;-77
2023/09/26 07:54:48;;;;;;;19.55;11.73;;;30.00;97.20;;;29.52;45.93;102313.66;5051074;28;20106;-77
2023/09/26 07:57:14;;;;;;;13.00;9.13;;;30.20;96.80;;;29.72;45.41;102308.06;5051949;28;20453;-77
2023/09/26 07:59:39;;;;;;;14.05;11.13;;;30.10;96.40;;;29.22;46.13;102309.53;5036508;28;20033;-77
2023/09/26 08:02:05;;;;;;;13.75;9.68;;;30.30;96.30;;;29.55;45.94;102316.09;5043995;28;20036;-78
2023/09/26 08:04:31;;;;;;;14.43;10.43;;;30.60;96.70;;;29.91;45.60;102321.44;5056077;28;20028;-77
2023/09/26 08:06:57;;;;;;;13.70;10.15;;;30.60;97.40;;;29.87;45.23;102324.63;5055907;28;20094;-77
2023/09/26 08:09:23;;;;;;;10.35;8.90;;;31.20;96.60;;;30.76;44.67;102332.38;5052223;28;20036;-77
2023/09/26 08:11:48;;;;;;;17.42;8.85;;;31.50;95.90;;;30.83;44.55;102325.25;5051231;28;20632;-77
2023/09/26 08:14:14;;;;;;;16.38;9.55;;;31.70;94.30;;;30.54;44.08;102327.53;5051641;28;20055;-77
2023/09/26 08:16:40;;;;;;;12.45;10.27;;;31.60;94.10;;;30.13;44.70;102314.63;5044371;28;20050;-77
2023/09/26 08:19:05;;;;;;;14.35;9.18;;;31.50;94.40;;;30.26;44.54;102314.16;5071538;28;20040;-77
2023/09/26 08:21:31;;;;;;;13.75;8.48;;;31.80;95.70;;;31.04;44.38;102321.25;5040322;28;20039;-77
2023/09/26 08:23:57;;;;;;;16.67;11.65;;;32.20;95.10;;;31.26;43.57;102334.16;5042631;28;20512;-77
2023/09/26 08:26:22;;;;;;;12.30;9.65;;;32.10;95.00;;;30.81;43.99;102319.13;5042637;28;21930;-77
2023/09/26 08:28:48;;;;;;;13.68;11.00;;;32.00;94.30;;;30.59;44.29;102317.03;5053834;28;20120;-77
2023/09/26 08:31:17;;;;;;;10.48;9.23;;;31.70;93.90;;;29.95;44.75;102298.38;5055049;28;20505;-77
2023/09/26 08:33:44;;;;;;;13.23;9.65;;;31.60;95.10;;;30.32;44.76;102305.38;5049497;28;20415;-78
2023/09/26 08:36:15;;;;;;;18.42;12.10;;;31.30;93.90;;;29.51;45.14;102290.28;5045746;28;20028;-77
2023/09/26 08:38:45;;;;;;;16.92;11.73;;;31.00;95.20;;;29.68;45.75;102279.50;5054922;28;20115;-77
2023/09/26 08:41:12;;;;;;;17.73;12.50;;;30.50;94.50;;;28.58;47.07;102270.75;5050302;28;20090;-77
2023/09/26 08:43:38;;;;;;;15.25;12.50;;;30.00;95.10;;;27.98;48.23;102247.66;5054305;28;20135;-77
2023/09/26 08:46:05;;;;;;;15.40;11.18;;;29.50;95.90;;;27.74;48.55;102240.03;5048868;28;20036;-78
2023/09/26 08:48:33;;;;;;;14.40;11.57;;;28.60;97.20;;;27.01;50.24;102223.50;5038669;28;20082;-77
2023/09/26 08:50:59;;;;;;;13.90;11.05;;;28.10;97.90;;;26.70;51.74;102225.50;5054008;28;20040;-77
2023/09/26 08:53:25;;;;;;;17.60;11.40;;;28.10;98.40;;;27.19;50.14;102213.69;5052673;28;20120;-77
2023/09/26 08:55:52;;;;;;;16.27;12.20;;;27.90;98.50;;;26.88;50.60;102212.97;5050711;28;20048;-77
2023/09/26 08:58:20;;;;;;;19.80;9.98;;;27.70;98.90;;;26.79;51.34;102195.78;5040691;28;20067;-77
2023/09/26 09:00:46;;;;;;;18.17;10.32;;;27.40;99.40;;;26.48;51.77;102188.75;5054639;28;20028;-77
2023/09/26 09:03:13;;;;;;;13.35;12.00;;;27.20;99.20;;;26.27;52.26;102187.03;5055667;28;20072;-77
2023/09/26 09:05:40;;;;;;;17.15;12.95;;;27.00;99.60;;;26.15;52.30;102182.72;5054300;28;20506;-77
2023/09/26 09:08:20;;;;;;;17.85;13.25;;;26.70;99.90;;;26.04;52.78;102172.03;5045765;28;20109;-77
2023/09/26 09:10:54;;;;;;;15.80;12.73;;;26.60;99.90;;;25.99;53.08;102172.47;5035766;28;20397;-78
2023/09/26 09:13:42;;;;;;;16.08;13.35;;;26.50;99.90;;;26.07;53.63;102169.94;5055144;28;20490;-77
2023/09/26 09:16:20;;;;;;;21.55;12.23;;;26.10;99.90;;;25.06;54.99;102144.56;5055410;28;20059;-79
2023/09/26 09:18:58;;;;;;;18.30;11.65;;;25.60;99.90;;;24.45;56.55;102130.88;5058073;28;20502;-78
2023/09/26 09:21:30;;;;;;;18.00;13.75;;;25.00;99.90;;;23.77;58.26;102122.13;5035965;28;20044;-78
2023/09/26 09:24:01;;;;;;;16.25;12.63;;;24.70;99.90;;;23.58;58.98;102125.41;5040824;28;20040;-77
2023/09/26 09:26:34;;;;;;;17.60;13.20;;;24.60;99.90;;;23.58;59.81;102112.81;5059892;28;20044;-77
2023/09/26 09:29:23;;;;;;;20.10;12.98;;;23.90;99.90;;;22.54;62.33;102105.63;5055962;28;20115;-78
2023/09/26 09:31:51;;;;;;;16.15;11.73;;;23.80;99.90;;;22.63;62.92;102096.88;5049182;28;20056;-77
2023/09/26 09:34:20;;;;;;;14.25;12.15;;;23.70;99.90;;;22.86;62.70;102091.59;5053483;28;20031;-78
2023/09/26 09:36:50;;;;;;;21.52;14.45;;;23.80;99.90;;;23.12;61.78;102100.31;5056846;28;20032;-78
2023/09/26 09:39:19;;;;;;;19.48;12.77;;;23.80;99.90;;;23.10;62.55;102087.00;5047371;28;20043;-77
2023/09/26 09:41:55;;;;;;;18.73;14.00;;;23.80;99.90;;;23.08;62.17;102086.28;5052356;28;20040;-77
2023/09/26 09:44:23;;;;;;;;;;;23.80;99.90;;;22.82;62.35;102080.22;5052164;28;20065;-78
2023/09/26 09:47:03;;;;;;;16.92;11.88;;;23.80;99.90;;;22.86;62.97;102078.16;5055627;28;19927;-77
2023/09/26 09:49:32;;;;;;;14.52;11.32;;;23.70;99.90;;;23.02;63.00;102075.16;5036032;28;20052;-77
2023/09/26 09:52:06;;;;;;;18.80;13.07;;;23.70;99.90;;;23.09;62.87;102071.88;5056244;28;20041;-78
2023/09/26 09:54:39;;;;;;;22.05;12.88;;;23.80;99.90;;;23.28;62.64;102070.41;5048524;28;20029;-77
2023/09/26 09:57:10;;;;;;;16.00;12.30;;;23.80;99.90;;;23.23;63.02;102064.56;5052205;28;20125;-77
2023/09/26 09:59:38;;;;;;;18.38;14.05;;;23.90;99.90;;;23.25;62.99;102063.44;5047068;28;20083;-77